Time,TemperatureF,DewpointF,PressureIn,WindDirection,WindDirectionDegrees,WindSpeedMPH,WindSpeedGustMPH,Humidity,HourlyPrecipIn,Conditions,Clouds,dailyrainin,SoftwareType,DateUTC
2013-10-13 00:00:00,55.0,44.7,30.21,ESE,112,2.0,6.0,68,0.00,,---,0.00,VWS V14.01,2013-10-13 04:00:00,
2013-10-13 00:01:00,55.0,44.7,30.21,SE,135,3.0,6.0,68,0.00,,---,0.00,VWS V14.01,2013-10-13 04:01:00,
2013-10-13 00:02:00,55.0,44.7,30.21,East,90,2.0,6.0,68,0.00,,---,0.00,VWS V14.01,2013-10-13 04:02:00,
2013-10-13 00:03:00,55.0,44.3,30.21,East,90,3.0,6.0,67,0.00,,---,0.00,VWS V14.01,2013-10-13 04:03:00,
2013-10-13 00:04:00,55.0,44.3,30.21,SSE,158,3.0,6.0,67,0.00,,---,0.00,VWS V14.01,2013-10-13 04:04:00,
2013-10-13 00:09:00,56.0,44.4,30.21,SE,135,1.0,8.0,65,0.00,,---,0.00,VWS V14.01,2013-10-13 04:09:00,
2013-10-13 00:15:00,56.0,44.8,30.21,SE,135,1.0,8.0,66,0.00,,---,0.00,VWS V14.01,2013-10-13 04:15:00,
2013-10-13 00:20:00,56.0,44.8,30.22,SSE,158,1.0,8.0,66,0.00,,---,0.00,VWS V14.01,2013-10-13 04:20:00,
2013-10-13 00:25:00,56.0,44.4,30.22,East,90,1.0,4.0,65,0.00,,---,0.00,VWS V14.01,2013-10-13 04:25:00,
2013-10-13 00:30:00,56.0,44.4,30.21,East,90,1.0,4.0,65,0.00,,---,0.00,VWS V14.01,2013-10-13 04:30:00,
2013-10-13 00:35:00,55.0,43.9,30.22,ESE,112,3.0,4.0,66,0.00,,---,0.00,VWS V14.01,2013-10-13 04:35:00,
2013-10-13 00:40:00,55.0,43.9,30.22,East,90,0.0,1.0,66,0.00,,---,0.00,VWS V14.01,2013-10-13 04:40:00,
2013-10-13 00:45:00,55.0,43.1,30.22,East,90,0.0,1.0,64,0.00,,---,0.00,VWS V14.01,2013-10-13 04:45:00,
2013-10-13 00:50:00,55.0,43.9,30.23,West,270,1.0,2.0,66,0.00,,---,0.00,VWS V14.01,2013-10-13 04:50:00,
2013-10-13 00:56:00,55.0,44.3,30.22,SE,135,4.0,5.0,67,0.00,,---,0.00,VWS V14.01,2013-10-13 04:56:00,
2013-10-13 01:01:00,55.0,44.3,30.22,ESE,112,4.0,5.0,67,0.00,,---,0.00,VWS V14.01,2013-10-13 05:01:00,
2013-10-13 01:06:00,55.0,43.9,30.22,SE,135,4.0,7.0,66,0.00,,---,0.00,VWS V14.01,2013-10-13 05:06:00,
2013-10-13 01:11:00,56.0,44.4,30.23,SSE,158,3.0,8.0,65,0.00,,---,0.00,VWS V14.01,2013-10-13 05:11:00,
2013-10-13 01:16:00,56.0,44.0,30.23,ESE,112,0.0,8.0,64,0.00,,---,0.00,VWS V14.01,2013-10-13 05:16:00,
2013-10-13 01:21:00,56.0,43.6,30.23,SSE,158,1.0,1.0,63,0.00,,---,0.00,VWS V14.01,2013-10-13 05:21:00,
2013-10-13 01:26:00,56.0,43.2,30.23,SE,135,1.0,3.0,62,0.00,,---,0.00,VWS V14.01,2013-10-13 05:26:00,
2013-10-13 01:32:00,56.0,43.6,30.23,SE,135,3.0,6.0,63,0.00,,---,0.00,VWS V14.01,2013-10-13 05:32:00,
2013-10-13 01:37:00,56.0,44.0,30.23,East,90,1.0,6.0,64,0.00,,---,0.00,VWS V14.01,2013-10-13 05:37:00,
2013-10-13 01:42:00,56.0,43.2,30.24,SE,135,1.0,2.0,62,0.00,,---,0.00,VWS V14.01,2013-10-13 05:42:00,
2013-10-13 01:47:00,56.0,43.6,30.24,SE,135,0.0,5.0,63,0.00,,---,0.00,VWS V14.01,2013-10-13 05:47:00,
2013-10-13 01:52:00,56.0,44.0,30.24,SE,135,3.0,5.0,64,0.00,,---,0.00,VWS V14.01,2013-10-13 05:52:00,
2013-10-13 01:57:00,56.0,44.4,30.24,SE,135,2.0,5.0,65,0.00,,---,0.00,VWS V14.01,2013-10-13 05:57:00,
2013-10-13 02:03:00,56.0,44.4,30.24,ENE,68,2.0,4.0,65,0.00,,---,0.00,VWS V14.01,2013-10-13 06:03:00,
2013-10-13 02:08:00,56.0,44.0,30.24,East,90,1.0,4.0,64,0.00,,---,0.00,VWS V14.01,2013-10-13 06:08:00,
2013-10-13 02:13:00,56.0,43.6,30.24,ENE,68,0.0,4.0,63,0.00,,---,0.00,VWS V14.01,2013-10-13 06:13:00,
2013-10-13 02:18:00,56.0,43.6,30.24,East,90,1.0,4.0,63,0.00,,---,0.00,VWS V14.01,2013-10-13 06:18:00,
2013-10-13 02:23:00,56.0,44.0,30.24,East,90,1.0,3.0,64,0.00,,---,0.00,VWS V14.01,2013-10-13 06:23:00,
2013-10-13 02:28:00,56.0,44.0,30.24,East,90,1.0,3.0,64,0.00,,---,0.00,VWS V14.01,2013-10-13 06:28:00,
2013-10-13 02:33:00,56.0,44.4,30.25,ESE,112,1.0,3.0,65,0.00,,---,0.00,VWS V14.01,2013-10-13 06:33:00,
2013-10-13 02:39:00,56.0,44.8,30.24,SE,135,1.0,3.0,66,0.00,,---,0.00,VWS V14.01,2013-10-13 06:39:00,
2013-10-13 02:44:00,56.0,44.8,30.24,SE,135,1.0,2.0,66,0.00,,---,0.00,VWS V14.01,2013-10-13 06:44:00,
2013-10-13 02:49:00,56.0,44.8,30.24,ESE,112,0.0,3.0,66,0.00,,---,0.00,VWS V14.01,2013-10-13 06:49:00,
2013-10-13 02:54:00,56.0,44.4,30.24,ENE,68,1.0,3.0,65,0.00,,---,0.00,VWS V14.01,2013-10-13 06:54:00,
2013-10-13 02:59:00,56.0,44.0,30.25,ESE,112,0.0,3.0,64,0.00,,---,0.00,VWS V14.01,2013-10-13 06:59:00,
2013-10-13 03:04:00,56.0,44.8,30.24,ESE,112,1.0,1.0,66,0.00,,---,0.00,VWS V14.01,2013-10-13 07:04:00,
2013-10-13 03:09:00,56.0,44.8,30.24,SE,135,1.0,4.0,66,0.00,,---,0.00,VWS V14.01,2013-10-13 07:09:00,
2013-10-13 03:14:00,56.0,45.2,30.24,ESE,112,3.0,6.0,67,0.00,,---,0.00,VWS V14.01,2013-10-13 07:14:00,
2013-10-13 03:20:00,56.0,45.2,30.24,South,180,6.0,7.0,67,0.00,,---,0.00,VWS V14.01,2013-10-13 07:20:00,
2013-10-13 03:25:00,57.0,45.0,30.24,SSE,158,4.0,6.0,64,0.00,,---,0.00,VWS V14.01,2013-10-13 07:25:00,
2013-10-13 03:30:00,57.0,44.5,30.24,SSE,158,4.0,6.0,63,0.00,,---,0.00,VWS V14.01,2013-10-13 07:30:00,
2013-10-13 03:35:00,58.0,44.2,30.23,SE,135,3.0,7.0,60,0.00,,---,0.00,VWS V14.01,2013-10-13 07:35:00,
2013-10-13 03:40:00,58.0,43.8,30.23,ESE,112,3.0,10.0,59,0.00,,---,0.00,VWS V14.01,2013-10-13 07:40:00,
2013-10-13 03:45:00,59.0,44.7,30.23,SSE,158,8.0,10.0,59,0.00,,---,0.00,VWS V14.01,2013-10-13 07:45:00,
2013-10-13 03:50:00,59.0,44.7,30.23,ESE,112,3.0,10.0,59,0.00,,---,0.00,VWS V14.01,2013-10-13 07:50:00,
2013-10-13 03:55:00,59.0,44.7,30.23,SE,135,1.0,10.0,59,0.00,,---,0.00,VWS V14.01,2013-10-13 07:55:00,
2013-10-13 04:00:00,59.0,45.2,30.23,SE,135,2.0,3.0,60,0.00,,---,0.00,VWS V14.01,2013-10-13 08:00:00,
2013-10-13 04:05:00,58.0,43.8,30.24,SE,135,0.0,5.0,59,0.00,,---,0.00,VWS V14.01,2013-10-13 08:05:00,
2013-10-13 04:11:00,58.0,44.2,30.24,NE,45,0.0,5.0,60,0.00,,---,0.00,VWS V14.01,2013-10-13 08:11:00,
2013-10-13 04:16:00,58.0,44.2,30.24,North,0,1.0,5.0,60,0.00,,---,0.00,VWS V14.01,2013-10-13 08:16:00,
2013-10-13 04:21:00,58.0,44.6,30.24,ESE,112,2.0,3.0,61,0.00,,---,0.00,VWS V14.01,2013-10-13 08:21:00,
2013-10-13 04:26:00,58.0,45.1,30.24,SE,135,1.0,3.0,62,0.00,,---,0.00,VWS V14.01,2013-10-13 08:26:00,
2013-10-13 04:31:00,58.0,45.5,30.24,ESE,112,1.0,5.0,63,0.00,,---,0.00,VWS V14.01,2013-10-13 08:31:00,
2013-10-13 04:36:00,58.0,45.5,30.24,NE,45,1.0,5.0,63,0.00,,---,0.00,VWS V14.01,2013-10-13 08:36:00,
2013-10-13 04:41:00,58.0,46.3,30.24,ESE,112,1.0,3.0,65,0.00,,---,0.00,VWS V14.01,2013-10-13 08:41:00,
2013-10-13 04:46:00,57.0,45.4,30.25,ESE,112,1.0,5.0,65,0.00,,---,0.00,VWS V14.01,2013-10-13 08:46:00,
2013-10-13 04:51:00,57.0,45.4,30.24,ESE,112,2.0,5.0,65,0.00,,---,0.00,VWS V14.01,2013-10-13 08:51:00,
2013-10-13 04:56:00,57.0,45.0,30.25,SE,135,4.0,5.0,64,0.00,,---,0.00,VWS V14.01,2013-10-13 08:56:00,
2013-10-13 05:02:00,58.0,45.5,30.25,SSE,158,2.0,4.0,63,0.00,,---,0.00,VWS V14.01,2013-10-13 09:02:00,
2013-10-13 05:07:00,58.0,45.5,30.25,ESE,112,2.0,7.0,63,0.00,,---,0.00,VWS V14.01,2013-10-13 09:07:00,
2013-10-13 05:12:00,58.0,44.6,30.25,SE,135,1.0,7.0,61,0.00,,---,0.00,VWS V14.01,2013-10-13 09:12:00,
2013-10-13 05:17:00,58.0,45.1,30.25,SSE,158,6.0,8.0,62,0.00,,---,0.00,VWS V14.01,2013-10-13 09:17:00,
2013-10-13 05:22:00,58.0,44.6,30.25,ESE,112,1.0,1.0,61,0.00,,---,0.00,VWS V14.01,2013-10-13 09:22:00,
2013-10-13 05:27:00,58.0,44.6,30.26,ESE,112,1.0,2.0,61,0.00,,---,0.00,VWS V14.01,2013-10-13 09:27:00,
2013-10-13 05:32:00,58.0,44.6,30.26,ESE,112,3.0,6.0,61,0.00,,---,0.00,VWS V14.01,2013-10-13 09:32:00,
2013-10-13 05:37:00,58.0,44.6,30.26,SE,135,2.0,6.0,61,0.00,,---,0.00,VWS V14.01,2013-10-13 09:37:00,
2013-10-13 05:42:00,58.0,44.2,30.26,SE,135,1.0,3.0,60,0.00,,---,0.00,VWS V14.01,2013-10-13 09:42:00,
2013-10-13 05:47:00,58.0,44.6,30.26,SE,135,1.0,5.0,61,0.00,,---,0.00,VWS V14.01,2013-10-13 09:47:00,
2013-10-13 05:52:00,58.0,45.1,30.26,East,90,0.0,5.0,62,0.00,,---,0.00,VWS V14.01,2013-10-13 09:52:00,
2013-10-13 05:57:00,58.0,45.5,30.27,East,90,0.0,5.0,63,0.00,,---,0.00,VWS V14.01,2013-10-13 09:57:00,
2013-10-13 06:02:00,58.0,45.1,30.27,SW,225,1.0,3.0,62,0.00,,---,0.00,VWS V14.01,2013-10-13 10:02:00,
2013-10-13 06:08:00,58.0,45.5,30.27,SSE,158,3.0,6.0,63,0.00,,---,0.00,VWS V14.01,2013-10-13 10:08:00,
2013-10-13 06:13:00,58.0,45.1,30.27,SSE,158,3.0,6.0,62,0.00,,---,0.00,VWS V14.01,2013-10-13 10:13:00,
2013-10-13 06:18:00,58.0,45.9,30.27,South,180,2.0,6.0,64,0.00,,---,0.00,VWS V14.01,2013-10-13 10:18:00,
2013-10-13 06:23:00,58.0,48.3,30.27,WNW,292,0.0,1.0,70,0.00,,---,0.00,VWS V14.01,2013-10-13 10:23:00,
2013-10-13 06:28:00,57.0,48.4,30.27,WSW,248,0.0,2.0,73,0.00,,---,0.00,VWS V14.01,2013-10-13 10:28:00,
2013-10-13 06:33:00,56.0,48.2,30.27,SSE,158,1.0,6.0,75,0.01,,---,0.01,VWS V14.01,2013-10-13 10:33:00,
2013-10-13 06:38:00,56.0,48.9,30.28,ENE,68,1.0,6.0,77,0.01,,---,0.01,VWS V14.01,2013-10-13 10:38:00,
2013-10-13 06:43:00,56.0,49.6,30.28,ESE,112,1.0,3.0,79,0.01,,---,0.01,VWS V14.01,2013-10-13 10:43:00,
2013-10-13 06:48:00,55.0,49.3,30.28,ENE,68,0.0,4.0,81,0.02,,---,0.02,VWS V14.01,2013-10-13 10:48:00,
2013-10-13 06:53:00,55.0,50.6,30.28,ENE,68,2.0,4.0,85,0.03,,---,0.03,VWS V14.01,2013-10-13 10:53:00,
2013-10-13 06:58:00,54.0,49.9,30.28,NE,45,1.0,4.0,86,0.03,,---,0.03,VWS V14.01,2013-10-13 10:58:00,
2013-10-13 07:03:00,54.0,49.9,30.29,ENE,68,1.0,2.0,86,0.03,,---,0.03,VWS V14.01,2013-10-13 11:03:00,
2013-10-13 07:08:00,54.0,50.2,30.29,ENE,68,0.0,2.0,87,0.03,,---,0.03,VWS V14.01,2013-10-13 11:08:00,
2013-10-13 07:13:00,53.0,49.2,30.29,ENE,68,0.0,2.0,87,0.03,,---,0.03,VWS V14.01,2013-10-13 11:13:00,
2013-10-13 07:19:00,54.0,50.5,30.29,ESE,112,0.0,2.0,88,0.03,,---,0.03,VWS V14.01,2013-10-13 11:19:00,
2013-10-13 07:24:00,53.0,49.5,30.29,ESE,112,0.0,1.0,88,0.03,,---,0.03,VWS V14.01,2013-10-13 11:24:00,
2013-10-13 07:29:00,54.0,50.8,30.29,ESE,112,0.0,1.0,89,0.03,,---,0.03,VWS V14.01,2013-10-13 11:29:00,
2013-10-13 07:34:00,54.0,50.8,30.29,ESE,112,1.0,1.0,89,0.03,,---,0.03,VWS V14.01,2013-10-13 11:34:00,
2013-10-13 07:39:00,54.0,51.1,30.29,ESE,112,0.0,1.0,90,0.03,,---,0.03,VWS V14.01,2013-10-13 11:39:00,
2013-10-13 07:44:00,54.0,51.1,30.29,ESE,112,0.0,1.0,90,0.03,,---,0.04,VWS V14.01,2013-10-13 11:44:00,
2013-10-13 07:49:00,54.0,51.1,30.30,ESE,112,0.0,1.0,90,0.03,,---,0.04,VWS V14.01,2013-10-13 11:49:00,
2013-10-13 07:54:00,54.0,51.4,30.30,ESE,112,0.0,1.0,91,0.03,,---,0.04,VWS V14.01,2013-10-13 11:54:00,
2013-10-13 07:59:00,54.0,51.4,30.30,ESE,112,0.0,1.0,91,0.03,,---,0.04,VWS V14.01,2013-10-13 11:59:00,
2013-10-13 08:05:00,55.0,52.4,30.30,ESE,112,0.0,1.0,91,0.01,,---,0.04,VWS V14.01,2013-10-13 12:05:00,
2013-10-13 08:10:00,55.0,52.4,30.30,ESE,112,0.0,1.0,91,0.01,,---,0.04,VWS V14.01,2013-10-13 12:10:00,
2013-10-13 08:15:00,55.0,52.7,30.30,ESE,112,0.0,1.0,92,0.01,,---,0.04,VWS V14.01,2013-10-13 12:15:00,
2013-10-13 08:20:00,55.0,52.7,30.30,ESE,112,0.0,1.0,92,0.01,,---,0.04,VWS V14.01,2013-10-13 12:20:00,
2013-10-13 08:25:00,55.0,52.7,30.30,ESE,112,1.0,1.0,92,0.01,,---,0.04,VWS V14.01,2013-10-13 12:25:00,
2013-10-13 08:30:00,55.0,52.7,30.30,ESE,112,0.0,1.0,92,0.01,,---,0.04,VWS V14.01,2013-10-13 12:30:00,
2013-10-13 08:35:00,55.0,52.7,30.30,East,90,1.0,1.0,92,0.01,,---,0.04,VWS V14.01,2013-10-13 12:35:00,
2013-10-13 08:40:00,55.0,52.7,30.30,East,90,1.0,1.0,92,0.01,,---,0.04,VWS V14.01,2013-10-13 12:40:00,
2013-10-13 08:45:00,55.0,52.7,30.30,East,90,1.0,1.0,92,0.01,,---,0.04,VWS V14.01,2013-10-13 12:45:00,
2013-10-13 08:50:00,55.0,52.7,30.30,East,90,1.0,1.0,92,0.01,,---,0.04,VWS V14.01,2013-10-13 12:50:00,
2013-10-13 08:56:00,56.0,53.7,30.31,East,90,0.0,1.0,92,0.01,,---,0.04,VWS V14.01,2013-10-13 12:56:00,
2013-10-13 09:01:00,56.0,53.7,30.31,East,90,0.0,0.0,92,0.00,,---,0.04,VWS V14.01,2013-10-13 13:01:00,
2013-10-13 09:06:00,56.0,53.7,30.31,East,90,0.0,1.0,92,0.00,,---,0.04,VWS V14.01,2013-10-13 13:06:00,
2013-10-13 09:11:00,56.0,53.7,30.31,East,90,0.0,1.0,92,0.00,,---,0.04,VWS V14.01,2013-10-13 13:11:00,
2013-10-13 09:16:00,56.0,53.7,30.31,East,90,1.0,1.0,92,0.00,,---,0.04,VWS V14.01,2013-10-13 13:16:00,
2013-10-13 09:21:00,56.0,53.7,30.31,East,90,1.0,2.0,92,0.00,,---,0.04,VWS V14.01,2013-10-13 13:21:00,
2013-10-13 09:26:00,56.0,53.7,30.31,ENE,68,1.0,3.0,92,0.00,,---,0.04,VWS V14.01,2013-10-13 13:26:00,
2013-10-13 09:31:00,56.0,53.7,30.31,ENE,68,1.0,3.0,92,0.00,,---,0.04,VWS V14.01,2013-10-13 13:31:00,
2013-10-13 09:36:00,57.0,54.7,30.31,ENE,68,0.0,3.0,92,0.00,,---,0.04,VWS V14.01,2013-10-13 13:36:00,
2013-10-13 09:41:00,57.0,54.7,30.31,ENE,68,0.0,1.0,92,0.00,,---,0.04,VWS V14.01,2013-10-13 13:41:00,
2013-10-13 09:47:00,57.0,54.7,30.31,ENE,68,0.0,1.0,92,0.00,,---,0.04,VWS V14.01,2013-10-13 13:47:00,
2013-10-13 09:52:00,58.0,55.4,30.31,ENE,68,1.0,1.0,91,0.00,,---,0.04,VWS V14.01,2013-10-13 13:52:00,
2013-10-13 09:57:00,58.0,55.1,30.31,ESE,112,0.0,2.0,90,0.00,,---,0.04,VWS V14.01,2013-10-13 13:57:00,
2013-10-13 10:02:00,58.0,54.5,30.31,ESE,112,0.0,2.0,88,0.00,,---,0.04,VWS V14.01,2013-10-13 14:02:00,
2013-10-13 10:07:00,59.0,55.5,30.31,ESE,112,1.0,2.0,88,0.00,,---,0.04,VWS V14.01,2013-10-13 14:07:00,
2013-10-13 10:12:00,60.0,55.5,30.31,ESE,112,3.0,4.0,85,0.00,,---,0.04,VWS V14.01,2013-10-13 14:12:00,
2013-10-13 10:17:00,60.0,54.2,30.31,SE,135,2.0,8.0,81,0.00,,---,0.04,VWS V14.01,2013-10-13 14:17:00,
2013-10-13 10:22:00,61.0,54.5,30.31,SSE,158,3.0,5.0,79,0.00,,---,0.04,VWS V14.01,2013-10-13 14:22:00,
2013-10-13 10:27:00,61.0,54.1,30.31,SE,135,3.0,6.0,78,0.00,,---,0.04,VWS V14.01,2013-10-13 14:27:00,
2013-10-13 10:32:00,62.0,55.1,30.31,SE,135,3.0,6.0,78,0.00,,---,0.04,VWS V14.01,2013-10-13 14:32:00,
2013-10-13 10:38:00,62.0,54.7,30.31,ENE,68,2.0,6.0,77,0.00,,---,0.04,VWS V14.01,2013-10-13 14:38:00,
2013-10-13 10:43:00,62.0,54.0,30.31,South,180,5.0,9.0,75,0.00,,---,0.04,VWS V14.01,2013-10-13 14:43:00,
2013-10-13 10:48:00,63.0,54.6,30.31,SW,225,4.0,9.0,74,0.00,,---,0.04,VWS V14.01,2013-10-13 14:48:00,
2013-10-13 10:53:00,63.0,54.2,30.31,South,180,5.0,9.0,73,0.00,,---,0.04,VWS V14.01,2013-10-13 14:53:00,
2013-10-13 10:58:00,63.0,54.2,30.31,SSE,158,4.0,9.0,73,0.00,,---,0.04,VWS V14.01,2013-10-13 14:58:00,
2013-10-13 11:03:00,64.0,54.8,30.31,SSE,158,7.0,8.0,72,0.00,,---,0.04,VWS V14.01,2013-10-13 15:03:00,
2013-10-13 11:08:00,64.0,54.8,30.31,SE,135,6.0,11.0,72,0.00,,---,0.04,VWS V14.01,2013-10-13 15:08:00,
2013-10-13 11:13:00,64.0,54.8,30.31,SSW,202,6.0,11.0,72,0.00,,---,0.04,VWS V14.01,2013-10-13 15:13:00,
2013-10-13 11:18:00,64.0,54.8,30.31,SE,135,7.0,11.0,72,0.00,,---,0.04,VWS V14.01,2013-10-13 15:18:00,
2013-10-13 11:23:00,64.0,54.8,30.31,SSE,158,5.0,6.0,72,0.00,,---,0.04,VWS V14.01,2013-10-13 15:23:00,
2013-10-13 11:29:00,64.0,54.4,30.31,SSE,158,8.0,12.0,71,0.00,,---,0.04,VWS V14.01,2013-10-13 15:29:00,
2013-10-13 11:34:00,64.0,54.4,30.30,SE,135,8.0,13.0,71,0.00,,---,0.04,VWS V14.01,2013-10-13 15:34:00,
2013-10-13 11:39:00,64.0,54.4,30.31,South,180,6.0,13.0,71,0.00,,---,0.04,VWS V14.01,2013-10-13 15:39:00,
2013-10-13 11:44:00,65.0,55.4,30.31,West,270,1.0,10.0,71,0.00,,---,0.04,VWS V14.01,2013-10-13 15:44:00,
2013-10-13 11:49:00,65.0,55.4,30.31,SSE,158,3.0,10.0,71,0.00,,---,0.04,VWS V14.01,2013-10-13 15:49:00,
2013-10-13 11:54:00,65.0,55.0,30.31,South,180,6.0,10.0,70,0.00,,---,0.04,VWS V14.01,2013-10-13 15:54:00,
2013-10-13 11:59:00,65.0,55.4,30.31,SSE,158,8.0,10.0,71,0.00,,---,0.04,VWS V14.01,2013-10-13 15:59:00,
2013-10-13 12:04:00,65.0,55.4,30.31,SSE,158,2.0,11.0,71,0.00,,---,0.04,VWS V14.01,2013-10-13 16:04:00,
2013-10-13 12:09:00,65.0,55.4,30.31,SSE,158,5.0,11.0,71,0.00,,---,0.04,VWS V14.01,2013-10-13 16:09:00,
2013-10-13 12:15:00,65.0,55.4,30.31,SSW,202,5.0,11.0,71,0.00,,---,0.04,VWS V14.01,2013-10-13 16:15:00,
2013-10-13 12:20:00,65.0,55.8,30.31,SSE,158,5.0,11.0,72,0.00,,---,0.04,VWS V14.01,2013-10-13 16:20:00,
2013-10-13 12:25:00,65.0,55.4,30.31,SE,135,8.0,11.0,71,0.00,,---,0.04,VWS V14.01,2013-10-13 16:25:00,
2013-10-13 12:30:00,65.0,55.4,30.31,South,180,3.0,11.0,71,0.00,,---,0.04,VWS V14.01,2013-10-13 16:30:00,
2013-10-13 12:35:00,65.0,55.4,30.31,SE,135,6.0,11.0,71,0.00,,---,0.04,VWS V14.01,2013-10-13 16:35:00,
2013-10-13 12:40:00,65.0,55.4,30.31,SSE,158,6.0,6.0,71,0.00,,---,0.04,VWS V14.01,2013-10-13 16:40:00,
2013-10-13 12:45:00,65.0,55.0,30.31,South,180,7.0,10.0,70,0.00,,---,0.04,VWS V14.01,2013-10-13 16:45:00,
2013-10-13 12:50:00,66.0,56.0,30.30,SE,135,5.0,10.0,70,0.00,,---,0.04,VWS V14.01,2013-10-13 16:50:00,
2013-10-13 12:55:00,67.0,56.9,30.30,SSE,158,4.0,10.0,70,0.00,,---,0.04,VWS V14.01,2013-10-13 16:55:00,
2013-10-13 13:01:00,67.0,55.7,30.29,SW,225,3.0,9.0,67,0.00,,---,0.04,VWS V14.01,2013-10-13 17:01:00,
2013-10-13 13:06:00,67.0,55.7,30.29,SSE,158,7.0,13.0,67,0.00,,---,0.04,VWS V14.01,2013-10-13 17:06:00,
2013-10-13 13:11:00,67.0,55.7,30.29,SE,135,3.0,13.0,67,0.00,,---,0.04,VWS V14.01,2013-10-13 17:11:00,
2013-10-13 13:16:00,67.0,55.7,30.29,South,180,8.0,13.0,67,0.00,,---,0.04,VWS V14.01,2013-10-13 17:16:00,
2013-10-13 13:21:00,67.0,55.7,30.29,SE,135,5.0,9.0,67,0.00,,---,0.04,VWS V14.01,2013-10-13 17:21:00,
2013-10-13 13:26:00,68.0,56.2,30.29,South,180,9.0,14.0,66,0.00,,---,0.04,VWS V14.01,2013-10-13 17:26:00,
2013-10-13 13:31:00,67.0,55.3,30.29,SE,135,6.0,14.0,66,0.00,,---,0.04,VWS V14.01,2013-10-13 17:31:00,
2013-10-13 13:36:00,68.0,56.2,30.29,SW,225,6.0,14.0,66,0.00,,---,0.04,VWS V14.01,2013-10-13 17:36:00,
2013-10-13 13:42:00,68.0,56.2,30.29,South,180,5.0,5.0,66,0.00,,---,0.04,VWS V14.01,2013-10-13 17:42:00,
2013-10-13 13:47:00,68.0,55.8,30.29,SE,135,6.0,11.0,65,0.00,,---,0.04,VWS V14.01,2013-10-13 17:47:00,
2013-10-13 13:52:00,67.0,55.3,30.28,East,90,3.0,13.0,66,0.00,,---,0.04,VWS V14.01,2013-10-13 17:52:00,
2013-10-13 13:57:00,67.0,55.7,30.28,East,90,3.0,13.0,67,0.00,,---,0.04,VWS V14.01,2013-10-13 17:57:00,
2013-10-13 14:02:00,68.0,56.7,30.28,NE,45,3.0,9.0,67,0.00,,---,0.04,VWS V14.01,2013-10-13 18:02:00,
2013-10-13 14:07:00,68.0,56.2,30.28,SSE,158,8.0,13.0,66,0.00,,---,0.04,VWS V14.01,2013-10-13 18:07:00,
2013-10-13 14:12:00,68.0,56.7,30.28,SSE,158,5.0,13.0,67,0.00,,---,0.04,VWS V14.01,2013-10-13 18:12:00,
2013-10-13 14:18:00,67.0,55.3,30.28,South,180,7.0,14.0,66,0.00,,---,0.04,VWS V14.01,2013-10-13 18:18:00,
2013-10-13 14:23:00,68.0,56.7,30.28,South,180,8.0,9.0,67,0.00,,---,0.04,VWS V14.01,2013-10-13 18:23:00,
2013-10-13 14:28:00,68.0,56.7,30.28,SE,135,4.0,10.0,67,0.00,,---,0.04,VWS V14.01,2013-10-13 18:28:00,
2013-10-13 14:33:00,67.0,56.1,30.28,SSE,158,6.0,11.0,68,0.00,,---,0.04,VWS V14.01,2013-10-13 18:33:00,
2013-10-13 14:38:00,67.0,56.5,30.28,SE,135,7.0,11.0,69,0.00,,---,0.04,VWS V14.01,2013-10-13 18:38:00,
2013-10-13 14:43:00,67.0,56.5,30.28,SSE,158,5.0,11.0,69,0.00,,---,0.04,VWS V14.01,2013-10-13 18:43:00,
2013-10-13 14:48:00,66.0,55.5,30.28,SSE,158,7.0,11.0,69,0.00,,---,0.04,VWS V14.01,2013-10-13 18:48:00,
2013-10-13 14:54:00,66.0,56.0,30.28,South,180,5.0,11.0,70,0.00,,---,0.04,VWS V14.01,2013-10-13 18:54:00,
2013-10-13 14:59:00,66.0,56.3,30.28,SE,135,11.0,11.0,71,0.00,,---,0.04,VWS V14.01,2013-10-13 18:59:00,
2013-10-13 15:04:00,66.0,56.3,30.28,SSE,158,6.0,11.0,71,0.00,,---,0.04,VWS V14.01,2013-10-13 19:04:00,
2013-10-13 15:09:00,66.0,56.3,30.28,South,180,5.0,11.0,71,0.00,,---,0.04,VWS V14.01,2013-10-13 19:09:00,
2013-10-13 15:14:00,66.0,56.3,30.28,SE,135,5.0,11.0,71,0.00,,---,0.04,VWS V14.01,2013-10-13 19:14:00,
2013-10-13 15:19:00,66.0,56.3,30.28,South,180,5.0,11.0,71,0.00,,---,0.04,VWS V14.01,2013-10-13 19:19:00,
2013-10-13 15:24:00,66.0,56.3,30.28,SE,135,6.0,9.0,71,0.00,,---,0.04,VWS V14.01,2013-10-13 19:24:00,
2013-10-13 15:29:00,66.0,56.7,30.28,South,180,6.0,11.0,72,0.00,,---,0.04,VWS V14.01,2013-10-13 19:29:00,
2013-10-13 15:35:00,66.0,56.7,30.28,SE,135,3.0,11.0,72,0.00,,---,0.04,VWS V14.01,2013-10-13 19:35:00,
2013-10-13 15:40:00,66.0,57.1,30.29,South,180,8.0,11.0,73,0.00,,---,0.04,VWS V14.01,2013-10-13 19:40:00,
2013-10-13 15:45:00,65.0,57.3,30.29,SSW,202,5.0,10.0,76,0.00,,---,0.04,VWS V14.01,2013-10-13 19:45:00,
2013-10-13 15:50:00,64.0,57.4,30.29,SSE,158,5.0,10.0,79,0.00,,---,0.04,VWS V14.01,2013-10-13 19:50:00,
2013-10-13 15:55:00,64.0,58.1,30.29,South,180,5.0,10.0,81,0.00,,---,0.04,VWS V14.01,2013-10-13 19:55:00,
2013-10-13 16:00:00,64.0,58.4,30.29,SE,135,3.0,3.0,82,0.00,,---,0.04,VWS V14.01,2013-10-13 20:00:00,
2013-10-13 16:05:00,64.0,58.7,30.29,SSE,158,5.0,6.0,83,0.00,,---,0.04,VWS V14.01,2013-10-13 20:05:00,
2013-10-13 16:10:00,63.0,57.8,30.29,South,180,8.0,8.0,83,0.00,,---,0.04,VWS V14.01,2013-10-13 20:10:00,
2013-10-13 16:16:00,63.0,57.8,30.29,SSW,202,3.0,10.0,83,0.00,,---,0.04,VWS V14.01,2013-10-13 20:16:00,
2013-10-13 16:21:00,63.0,58.1,30.29,SSW,202,3.0,5.0,84,0.00,,---,0.04,VWS V14.01,2013-10-13 20:21:00,
2013-10-13 16:26:00,63.0,58.4,30.29,SSE,158,5.0,6.0,85,0.01,,---,0.05,VWS V14.01,2013-10-13 20:26:00,
2013-10-13 16:31:00,62.0,57.8,30.29,South,180,3.0,6.0,86,0.01,,---,0.05,VWS V14.01,2013-10-13 20:31:00,
2013-10-13 16:36:00,62.0,58.1,30.29,SSW,202,1.0,6.0,87,0.02,,---,0.06,VWS V14.01,2013-10-13 20:36:00,
2013-10-13 16:41:00,62.0,58.4,30.29,South,180,3.0,3.0,88,0.02,,---,0.06,VWS V14.01,2013-10-13 20:41:00,
2013-10-13 16:46:00,62.0,58.7,30.29,SSW,202,1.0,4.0,89,0.03,,---,0.07,VWS V14.01,2013-10-13 20:46:00,
2013-10-13 16:51:00,62.0,58.7,30.29,SE,135,3.0,4.0,89,0.04,,---,0.08,VWS V14.01,2013-10-13 20:51:00,
2013-10-13 16:57:00,62.0,59.0,30.29,SE,135,3.0,4.0,90,0.04,,---,0.08,VWS V14.01,2013-10-13 20:57:00,
2013-10-13 17:02:00,62.0,59.0,30.29,South,180,2.0,3.0,90,0.04,,---,0.08,VWS V14.01,2013-10-13 21:02:00,
2013-10-13 17:07:00,62.0,59.0,30.30,South,180,1.0,3.0,90,0.04,,---,0.08,VWS V14.01,2013-10-13 21:07:00,
2013-10-13 17:12:00,62.0,59.3,30.30,South,180,1.0,3.0,91,0.05,,---,0.09,VWS V14.01,2013-10-13 21:12:00,
2013-10-13 17:17:00,61.0,58.4,30.30,SSW,202,1.0,3.0,91,0.05,,---,0.09,VWS V14.01,2013-10-13 21:17:00,
2013-10-13 17:22:00,62.0,59.3,30.29,SSW,202,1.0,1.0,91,0.05,,---,0.09,VWS V14.01,2013-10-13 21:22:00,
2013-10-13 17:27:00,61.0,58.4,30.29,South,180,3.0,5.0,91,0.05,,---,0.09,VWS V14.01,2013-10-13 21:27:00,
2013-10-13 17:33:00,61.0,58.4,30.30,SSW,202,4.0,5.0,91,0.08,,---,0.12,VWS V14.01,2013-10-13 21:33:00,
2013-10-13 17:38:00,61.0,58.7,30.29,SSW,202,3.0,5.0,92,0.09,,---,0.13,VWS V14.01,2013-10-13 21:38:00,
2013-10-13 17:43:00,61.0,58.7,30.29,SW,225,1.0,3.0,92,0.07,,---,0.13,VWS V14.01,2013-10-13 21:43:00,
2013-10-13 17:48:00,61.0,58.7,30.29,SSW,202,1.0,3.0,92,0.07,,---,0.13,VWS V14.01,2013-10-13 21:48:00,
2013-10-13 17:53:00,61.0,59.0,30.29,South,180,1.0,4.0,93,0.08,,---,0.14,VWS V14.01,2013-10-13 21:53:00,
2013-10-13 17:58:00,61.0,59.0,30.29,SSW,202,1.0,4.0,93,0.08,,---,0.14,VWS V14.01,2013-10-13 21:58:00,
2013-10-13 18:03:00,61.0,59.0,30.29,SSW,202,1.0,3.0,93,0.06,,---,0.14,VWS V14.01,2013-10-13 22:03:00,
2013-10-13 18:09:00,61.0,59.0,30.29,SW,225,1.0,3.0,93,0.06,,---,0.14,VWS V14.01,2013-10-13 22:09:00,
2013-10-13 18:14:00,61.0,59.0,30.30,South,180,1.0,3.0,93,0.06,,---,0.14,VWS V14.01,2013-10-13 22:14:00,
2013-10-13 18:19:00,61.0,59.0,30.30,SSE,158,1.0,3.0,93,0.07,,---,0.15,VWS V14.01,2013-10-13 22:19:00,
2013-10-13 18:24:00,61.0,59.3,30.30,SE,135,1.0,3.0,94,0.06,,---,0.15,VWS V14.01,2013-10-13 22:24:00,
2013-10-13 18:29:00,61.0,59.3,30.30,WSW,248,1.0,3.0,94,0.06,,---,0.15,VWS V14.01,2013-10-13 22:29:00,
2013-10-13 18:34:00,61.0,59.3,30.30,South,180,1.0,3.0,94,0.07,,---,0.16,VWS V14.01,2013-10-13 22:34:00,
2013-10-13 18:39:00,61.0,59.3,30.30,SSW,202,2.0,3.0,94,0.07,,---,0.16,VWS V14.01,2013-10-13 22:39:00,
2013-10-13 18:44:00,60.0,58.3,30.30,South,180,1.0,1.0,94,0.04,,---,0.17,VWS V14.01,2013-10-13 22:44:00,
2013-10-13 18:49:00,60.0,58.3,30.31,SSE,158,2.0,2.0,94,0.04,,---,0.17,VWS V14.01,2013-10-13 22:49:00,
2013-10-13 18:55:00,60.0,58.3,30.30,South,180,1.0,3.0,94,0.07,,---,0.20,VWS V14.01,2013-10-13 22:55:00,
2013-10-13 19:00:00,60.0,58.3,30.31,SSW,202,0.0,3.0,94,0.08,,---,0.21,VWS V14.01,2013-10-13 23:00:00,
2013-10-13 19:05:00,60.0,58.3,30.31,SSW,202,1.0,1.0,94,0.08,,---,0.22,VWS V14.01,2013-10-13 23:05:00,
2013-10-13 19:10:00,60.0,58.6,30.31,SW,225,0.0,2.0,95,0.10,,---,0.24,VWS V14.01,2013-10-13 23:10:00,
2013-10-13 19:15:00,60.0,58.6,30.31,SW,225,0.0,2.0,95,0.11,,---,0.25,VWS V14.01,2013-10-13 23:15:00,
2013-10-13 19:20:00,60.0,58.6,30.31,SW,225,0.0,1.0,95,0.12,,---,0.27,VWS V14.01,2013-10-13 23:20:00,
2013-10-13 19:25:00,60.0,58.6,30.31,SSW,202,1.0,2.0,95,0.14,,---,0.29,VWS V14.01,2013-10-13 23:25:00,
2013-10-13 19:30:00,60.0,58.6,30.31,SSW,202,1.0,2.0,95,0.19,,---,0.34,VWS V14.01,2013-10-13 23:30:00,
2013-10-13 19:36:00,60.0,58.6,30.31,SSW,202,0.0,2.0,95,0.22,,---,0.37,VWS V14.01,2013-10-13 23:36:00,
2013-10-13 19:41:00,60.0,58.6,30.31,SSW,202,0.0,0.0,95,0.23,,---,0.39,VWS V14.01,2013-10-13 23:41:00,
2013-10-13 19:46:00,60.0,58.6,30.31,SSW,202,1.0,1.0,95,0.24,,---,0.40,VWS V14.01,2013-10-13 23:46:00,
2013-10-13 19:51:00,60.0,58.6,30.31,SSW,202,0.0,1.0,95,0.25,,---,0.41,VWS V14.01,2013-10-13 23:51:00,
2013-10-13 19:56:00,60.0,58.6,30.31,SSW,202,0.0,1.0,95,0.26,,---,0.42,VWS V14.01,2013-10-13 23:56:00,
2013-10-13 20:01:00,60.0,58.9,30.31,SSW,202,0.0,1.0,96,0.21,,---,0.43,VWS V14.01,2013-10-14 00:01:00,
2013-10-13 20:06:00,60.0,58.9,30.31,SSW,202,1.0,1.0,96,0.21,,---,0.43,VWS V14.01,2013-10-14 00:06:00,
2013-10-13 20:11:00,60.0,58.9,30.32,South,180,0.0,1.0,96,0.22,,---,0.44,VWS V14.01,2013-10-14 00:11:00,
2013-10-13 20:17:00,60.0,58.9,30.32,South,180,0.0,1.0,96,0.23,,---,0.45,VWS V14.01,2013-10-14 00:17:00,
2013-10-13 20:22:00,60.0,58.9,30.32,South,180,0.0,0.0,96,0.19,,---,0.46,VWS V14.01,2013-10-14 00:22:00,
2013-10-13 20:27:00,60.0,58.9,30.32,South,180,0.0,1.0,96,0.19,,---,0.46,VWS V14.01,2013-10-14 00:27:00,
2013-10-13 20:32:00,60.0,58.9,30.32,South,180,0.0,1.0,96,0.19,,---,0.46,VWS V14.01,2013-10-14 00:32:00,
2013-10-13 20:37:00,60.0,58.9,30.32,South,180,0.0,1.0,96,0.19,,---,0.46,VWS V14.01,2013-10-14 00:37:00,
2013-10-13 20:42:00,60.0,58.9,30.32,South,180,0.0,1.0,96,0.08,,---,0.47,VWS V14.01,2013-10-14 00:42:00,
2013-10-13 20:47:00,60.0,58.9,30.32,South,180,0.0,1.0,96,0.08,,---,0.47,VWS V14.01,2013-10-14 00:47:00,
2013-10-13 20:52:00,60.0,58.9,30.32,South,180,0.0,1.0,96,0.09,,---,0.48,VWS V14.01,2013-10-14 00:52:00,
2013-10-13 20:57:00,60.0,58.9,30.32,South,180,0.0,1.0,96,0.09,,---,0.48,VWS V14.01,2013-10-14 00:57:00,
2013-10-13 21:02:00,60.0,58.9,30.32,South,180,0.0,1.0,96,0.05,,---,0.48,VWS V14.01,2013-10-14 01:02:00,
2013-10-13 21:08:00,60.0,58.9,30.32,South,180,0.0,1.0,96,0.05,,---,0.48,VWS V14.01,2013-10-14 01:08:00,
2013-10-13 21:13:00,60.0,58.9,30.32,South,180,1.0,2.0,96,0.05,,---,0.48,VWS V14.01,2013-10-14 01:13:00,
2013-10-13 21:18:00,60.0,58.9,30.32,SE,135,2.0,3.0,96,0.06,,---,0.49,VWS V14.01,2013-10-14 01:18:00,
2013-10-13 21:23:00,60.0,58.9,30.32,SE,135,0.0,2.0,96,0.03,,---,0.49,VWS V14.01,2013-10-14 01:23:00,
2013-10-13 21:28:00,60.0,58.9,30.32,SSW,202,1.0,2.0,96,0.03,,---,0.49,VWS V14.01,2013-10-14 01:28:00,
2013-10-13 21:33:00,60.0,58.9,30.32,South,180,1.0,2.0,96,0.03,,---,0.49,VWS V14.01,2013-10-14 01:33:00,
2013-10-13 21:38:00,60.0,59.2,30.32,South,180,0.0,2.0,97,0.03,,---,0.49,VWS V14.01,2013-10-14 01:38:00,
2013-10-13 21:43:00,60.0,59.2,30.32,South,180,0.0,1.0,97,0.03,,---,0.50,VWS V14.01,2013-10-14 01:43:00,
2013-10-13 21:49:00,60.0,59.2,30.32,South,180,0.0,1.0,97,0.03,,---,0.50,VWS V14.01,2013-10-14 01:49:00,
2013-10-13 21:54:00,60.0,59.2,30.32,ESE,112,1.0,2.0,97,0.03,,---,0.50,VWS V14.01,2013-10-14 01:54:00,
2013-10-13 21:59:00,60.0,59.2,30.32,East,90,0.0,2.0,97,0.03,,---,0.50,VWS V14.01,2013-10-14 01:59:00,
2013-10-13 22:04:00,60.0,59.2,30.32,East,90,1.0,2.0,97,0.03,,---,0.51,VWS V14.01,2013-10-14 02:04:00,
2013-10-13 22:09:00,60.0,59.2,30.32,East,90,0.0,2.0,97,0.03,,---,0.51,VWS V14.01,2013-10-14 02:09:00,
2013-10-13 22:14:00,60.0,59.2,30.32,SE,135,3.0,5.0,97,0.03,,---,0.51,VWS V14.01,2013-10-14 02:14:00,
2013-10-13 22:19:00,60.0,59.2,30.32,SSE,158,2.0,5.0,97,0.03,,---,0.51,VWS V14.01,2013-10-14 02:19:00,
2013-10-13 22:24:00,59.0,58.2,30.32,SW,225,2.0,4.0,97,0.02,,---,0.51,VWS V14.01,2013-10-14 02:24:00,
2013-10-13 22:30:00,59.0,58.2,30.32,SW,225,0.0,4.0,97,0.03,,---,0.52,VWS V14.01,2013-10-14 02:30:00,
2013-10-13 22:35:00,59.0,58.2,30.32,South,180,1.0,5.0,97,0.03,,---,0.52,VWS V14.01,2013-10-14 02:35:00,
2013-10-13 22:40:00,59.0,58.2,30.32,South,180,3.0,5.0,97,0.03,,---,0.52,VWS V14.01,2013-10-14 02:40:00,
2013-10-13 22:45:00,59.0,58.2,30.32,SSW,202,1.0,4.0,97,0.03,,---,0.52,VWS V14.01,2013-10-14 02:45:00,
2013-10-13 22:50:00,59.0,58.2,30.32,SSW,202,1.0,5.0,97,0.03,,---,0.52,VWS V14.01,2013-10-14 02:50:00,
2013-10-13 22:55:00,59.0,58.2,30.32,SSE,158,2.0,5.0,97,0.05,,---,0.54,VWS V14.01,2013-10-14 02:55:00,
2013-10-13 23:00:00,59.0,58.2,30.32,SSE,158,3.0,4.0,97,0.05,,---,0.55,VWS V14.01,2013-10-14 03:00:00,
2013-10-13 23:05:00,59.0,58.2,30.32,South,180,2.0,4.0,97,0.05,,---,0.55,VWS V14.01,2013-10-14 03:05:00,
2013-10-13 23:11:00,59.0,58.2,30.32,South,180,2.0,5.0,97,0.06,,---,0.56,VWS V14.01,2013-10-14 03:11:00,
2013-10-13 23:16:00,59.0,58.2,30.32,South,180,3.0,5.0,97,0.08,,---,0.58,VWS V14.01,2013-10-14 03:16:00,
2013-10-13 23:21:00,59.0,58.2,30.32,SSW,202,2.0,2.0,97,0.07,,---,0.58,VWS V14.01,2013-10-14 03:21:00,
2013-10-13 23:26:00,59.0,58.2,30.32,South,180,2.0,4.0,97,0.07,,---,0.58,VWS V14.01,2013-10-14 03:26:00,
2013-10-13 23:31:00,59.0,58.2,30.32,South,180,4.0,5.0,97,0.07,,---,0.58,VWS V14.01,2013-10-14 03:31:00,
2013-10-13 23:36:00,59.0,58.2,30.32,South,180,2.0,5.0,97,0.08,,---,0.59,VWS V14.01,2013-10-14 03:36:00,
2013-10-13 23:41:00,59.0,58.2,30.32,South,180,3.0,4.0,97,0.07,,---,0.59,VWS V14.01,2013-10-14 03:41:00,
2013-10-13 23:46:00,59.0,58.2,30.32,South,180,1.0,4.0,97,0.07,,---,0.59,VWS V14.01,2013-10-14 03:46:00,
2013-10-13 23:51:00,59.0,58.2,30.32,SSE,158,2.0,4.0,97,0.07,,---,0.59,VWS V14.01,2013-10-14 03:51:00,
2013-10-13 23:57:00,59.0,58.2,30.32,SSE,158,1.0,5.0,97,0.08,,---,0.60,VWS V14.01,2013-10-14 03:57:00,